Decoded Metar for KPNC (PONCA CITY in OK, USA) (IATA:PNC) | Meteo·Mobile Aviation Weather
aviador You're here:

KPNC Decoded Metar

PONCA CITY in OK, USA
Report Time2018-12-17 09:53:00
UTC Time2018-12-17 11:00:15
Flight Rules Old
Wind020° at 04 kt
W.Decomp.*RWY 35: 3.6 kt HW 1.7 kt RCW
W.Rank020° ranks 10
Current wind is below 020° avg. (9.0)
Visibility9999 m
Phenomena:N/A
Clouds:N/A
Expected CloudBase > 1,200 ft AGL from Temp-Dew spread
CeilingNone
Temp-4°C (ISA -17)
Dew Point-7°C (80% RH)
AAT-8.2°C
QNH1025 hPa
Density Alt-1,437 ft
Elevation1,010 ft
Report Wrong Elevation
Raw Report
KPNC 170953Z AUTO 02004KT 10SM CLR M04/M07 A3028 RMK AO2 SLP255
T10391067 $=

Extra information for KPNC:More info

Metar Taf Metar & Taf Last 4 Metars F.Rules Stats Wind Profile Meteogram Temp Stats Airport Information Weather charts Add Link Nearby VenuesMetar ALERT Operation Metar Decoded Social comments

AIRNAV info for KPNC